Aviation Digital Data Service (ADDS)

Output produced by TAFs form (1045 UTC 30 March 2017)
found at http://aviationweather.gov/adds/tafs/
 
KLND 300528Z 3006/3106 VRB05KT P6SM BKN120 
     FM301400 VRB06KT P6SM SCT100 BKN150 
     FM302200 21008KT P6SM VCSH SCT050 BKN080 
     FM310100 01006KT P6SM SCT025 OVC040 
     FM310300 36007KT P6SM -RA OVC024